Terminal Aerodrome Forecast
Issued by NWS Grand Rapids, MI

Home | Current Version | Previous Version | Text Only | Print | Product List | Glossary On
Versions: 1 2 3 4 5 6 7 8 9 10 11 12 13 14 15 16 17 18 19 20 21
000
FTUS43 KGRR 051100
TAFGRR
TAF
KGRR 051126Z 0512/0612 07006KT P6SM -RA OVC090
     FM051500 07011KT 4SM -RA OVC025
     FM051700 07010KT 2SM RA BR OVC015
     FM052100 09008KT 4SM -RA BR OVC007
     FM060300 08008KT 2SM -DZ BR OVC004=

USA.gov is the U.S. government's official web portal to all federal, state and local government web resources and services.